Map

Track Data

SID SEASON NUMBER BASIN SUBBASIN NAME ISO_TIME NATURE LAT LON WMO_WIND WMO_PRES WMO_AGENCY TRACK_TYPE DIST2LAND LANDFALL IFLAG USA_AGENCY USA_ATCF_ID USA_LAT USA_LON USA_RECORD USA_STATUS USA_WIND USA_PRES USA_SSHS USA_R34_NE USA_R34_SE USA_R34_SW USA_R34_NW USA_R50_NE USA_R50_SE USA_R50_SW USA_R50_NW USA_R64_NE USA_R64_SE USA_R64_SW USA_R64_NW USA_POCI USA_ROCI USA_RMW USA_EYE TOKYO_LAT TOKYO_LON TOKYO_GRADE TOKYO_WIND TOKYO_PRES TOKYO_R50_DIR TOKYO_R50_LONG TOKYO_R50_SHORT TOKYO_R30_DIR TOKYO_R30_LONG TOKYO_R30_SHORT TOKYO_LAND CMA_LAT CMA_LON CMA_CAT CMA_WIND CMA_PRES HKO_LAT HKO_LON HKO_CAT HKO_WIND HKO_PRES NEWDELHI_LAT NEWDELHI_LON NEWDELHI_GRADE NEWDELHI_WIND NEWDELHI_PRES NEWDELHI_CI NEWDELHI_DP NEWDELHI_POCI REUNION_LAT REUNION_LON REUNION_TYPE REUNION_WIND REUNION_PRES REUNION_TNUM REUNION_CI REUNION_RMW REUNION_R34_NE REUNION_R34_SE REUNION_R34_SW REUNION_R34_NW REUNION_R50_NE REUNION_R50_SE REUNION_R50_SW REUNION_R50_NW REUNION_R64_NE REUNION_R64_SE REUNION_R64_SW REUNION_R64_NW BOM_LAT BOM_LON BOM_TYPE BOM_WIND BOM_PRES BOM_TNUM BOM_CI BOM_RMW BOM_R34_NE BOM_R34_SE BOM_R34_SW BOM_R34_NW BOM_R50_NE BOM_R50_SE BOM_R50_SW BOM_R50_NW BOM_R64_NE BOM_R64_SE BOM_R64_SW BOM_R64_NW BOM_ROCI BOM_POCI BOM_EYE BOM_POS_METHOD BOM_PRES_METHOD NADI_LAT NADI_LON NADI_CAT NADI_WIND NADI_PRES WELLINGTON_LAT WELLINGTON_LON WELLINGTON_WIND WELLINGTON_PRES DS824_LAT DS824_LON DS824_STAGE DS824_WIND DS824_PRES TD9636_LAT TD9636_LON TD9636_STAGE TD9636_WIND TD9636_PRES TD9635_LAT TD9635_LON TD9635_WIND TD9635_PRES TD9635_ROCI NEUMANN_LAT NEUMANN_LON NEUMANN_CLASS NEUMANN_WIND NEUMANN_PRES MLC_LAT MLC_LON MLC_CLASS MLC_WIND MLC_PRES USA_GUST BOM_GUST BOM_GUST_PER REUNION_GUST REUNION_GUST_PER USA_SEAHGT USA_SEARAD_NE USA_SEARAD_SE USA_SEARAD_SW USA_SEARAD_NW STORM_SPEED STORM_DIR
1915254N16110 1915 34 WP MM NOT_NAMED 1915-09-11 10:00:00 NR 16.2000 110.100 main 170 170 __________O___ -1 16.2000 110.100 7 1 315
1915254N16110 1915 34 WP MM NOT_NAMED 1915-09-11 12:00:00 NR 16.2279 110.066 main 170 162 __________P___ -1 16.2279 110.066 7 1 313
1915254N16110 1915 34 WP MM NOT_NAMED 1915-09-11 15:00:00 NR 16.2719 110.014 main 170 170 __________P___ -1 16.2719 110.014 7 1 313
1915254N16110 1915 34 WP MM NOT_NAMED 1915-09-11 18:00:00 NR 16.3210 109.964 main 170 162 __________P___ -1 16.3210 109.964 7 1 318
1915254N16110 1915 34 WP MM NOT_NAMED 1915-09-11 21:00:00 NR 16.3785 109.916 main 170 170 __________P___ -1 16.3785 109.916 7 2 325
1915254N16110 1915 34 WP MM NOT_NAMED 1915-09-11 22:00:00 NR 16.4000 109.900 main 170 170 __________O___ -1 16.4000 109.900 7 2 330
1915254N16110 1915 34 WP MM NOT_NAMED 1915-09-12 00:00:00 NR 16.4469 109.869 main 170 168 __________P___ -1 16.4469 109.869 7 2 330
1915254N16110 1915 34 WP MM NOT_NAMED 1915-09-12 03:00:00 NR 16.5236 109.823 main 168 168 __________P___ -1 16.5236 109.823 7 2 332
1915254N16110 1915 34 WP MM NOT_NAMED 1915-09-12 06:00:00 NR 16.6025 109.775 main 173 163 __________P___ -1 16.6025 109.775 7 2 328
1915254N16110 1915 34 WP MM NOT_NAMED 1915-09-12 09:00:00 NR 16.6771 109.720 main 167 167 __________P___ -1 16.6771 109.720 7 2 325
1915254N16110 1915 34 WP MM NOT_NAMED 1915-09-12 10:00:00 NR 16.7000 109.700 main 167 167 __________O___ -1 16.7000 109.700 7 2 321
1915254N16110 1915 34 WP MM NOT_NAMED 1915-09-12 12:00:00 NR 16.7390 109.661 main 167 156 __________P___ -1 16.7390 109.661 7 2 314
1915254N16110 1915 34 WP MM NOT_NAMED 1915-09-12 15:00:00 NR 16.7913 109.596 main 156 156 __________P___ -1 16.7913 109.596 7 2 308
1915254N16110 1915 34 WP MM NOT_NAMED 1915-09-12 18:00:00 NR 16.8387 109.521 main 156 145 __________P___ -1 16.8387 109.521 7 2 300
1915254N16110 1915 34 WP MM NOT_NAMED 1915-09-12 21:00:00 NR 16.8846 109.433 main 145 145 __________P___ -1 16.8846 109.433 7 2 298
1915254N16110 1915 34 WP MM NOT_NAMED 1915-09-12 22:00:00 NR 16.9000 109.400 main 145 145 __________O___ -1 16.9000 109.400 2 2 299
1915254N16110 1915 34 WP MM NOT_NAMED 1915-09-13 00:00:00 NR 16.9386 109.333 main 146 135 __________P___ -1 16.9386 109.333 2 2 299
1915254N16110 1915 34 WP MM NOT_NAMED 1915-09-13 03:00:00 NR 16.9965 109.221 main 137 137 __________P___ -1 16.9965 109.221 2 3 296
1915254N16110 1915 34 WP MM NOT_NAMED 1915-09-13 06:00:00 NR 17.0491 109.093 main 139 130 __________P___ -1 17.0491 109.093 2 3 290
1915254N16110 1915 34 WP MM NOT_NAMED 1915-09-13 09:00:00 NR 17.0900 108.951 main 134 131 __________P___ -1 17.0900 108.951 2 3 285
1915254N16110 1915 34 WP MM NOT_NAMED 1915-09-13 10:00:00 NR 17.1000 108.900 main 131 125 __________O___ -1 17.1000 108.900 2 3 279
1915254N16110 1915 34 WP MM NOT_NAMED 1915-09-13 12:00:00 NR 17.1136 108.793 main 125 113 __________P___ -1 17.1136 108.793 2 3 274
1915254N16110 1915 34 WP MM NOT_NAMED 1915-09-13 15:00:00 NR 17.1207 108.624 main 113 101 __________P___ -1 17.1207 108.624 2 3 270
1915254N16110 1915 34 WP MM NOT_NAMED 1915-09-13 18:00:00 NR 17.1160 108.445 main 101 93 __________P___ -1 17.1160 108.445 2 3 267
1915254N16110 1915 34 WP MM NOT_NAMED 1915-09-13 21:00:00 NR 17.1045 108.262 main 93 84 __________P___ -1 17.1045 108.262 2 4 266
1915254N16110 1915 34 WP MM NOT_NAMED 1915-09-13 22:00:00 NR 17.1000 108.200 main 84 __________O___ -1 17.1000 108.200 2 4 265

Digital Typhoon Data and Search

About IBTrACS Database

This database is a web-friendly format of International Best Track Archive for Climate Stewardship (IBTrACS), a global best track data archive curated by NOAA dating back to 1842.

Updated: 2021-10-27